Time;durP1;ratioP1;P1;durP2;ratioP2;P2;SDS_P1;SDS_P2;PMS_P1;PMS_P2;Temp;Humidity;BMP_temperature;BMP_pressure;BME280_temperature;BME280_humidity;BME280_pressure;Samples;Min_cycle;Max_cycle;Signal;HPM_P1;HPM_P2
2021/09/21 18:56:29;;;;;;;7.87;6.67;;;;;;;12.06;68.50;97932.66;5131023;27;20328;-64
2021/09/21 18:58:55;;;;;;;8.17;6.17;;;;;;;12.50;67.52;97937.94;5130924;28;20236;-65
2021/09/21 19:01:20;;;;;;;6.97;6.23;;;;;;;12.89;66.00;97938.72;5130978;28;20187;-65
2021/09/21 19:03:46;;;;;;;6.43;5.83;;;;;;;13.05;65.64;97945.28;5131050;28;20300;-65
2021/09/21 19:06:11;;;;;;;6.63;5.40;;;;;;;13.25;64.82;97946.00;5130904;27;20181;-65
2021/09/21 19:08:36;;;;;;;7.70;6.30;;;;;;;13.24;64.66;97947.81;5125494;27;20182;-66
2021/09/21 19:11:02;;;;;;;6.83;5.80;;;;;;;13.30;64.74;97941.69;5131218;28;20615;-66
2021/09/21 19:13:27;;;;;;;7.67;6.23;;;;;;;13.27;64.70;97944.75;5111917;28;20297;-66
2021/09/21 19:15:53;;;;;;;7.33;6.17;;;;;;;13.46;64.12;97945.59;5130935;28;20203;-65
2021/09/21 19:18:19;;;;;;;9.33;6.23;;;;;;;13.30;64.90;97938.25;5131175;28;20180;-65
2021/09/21 19:20:45;;;;;;;6.90;5.63;;;;;;;13.48;64.09;97940.94;5130350;28;20203;-65
2021/09/21 19:23:17;;;;;;;9.83;6.53;;;;;;;13.64;63.30;97948.28;5130258;28;20207;-66
2021/09/21 19:25:42;;;;;;;7.80;6.10;;;;;;;13.79;62.69;97944.50;5111687;28;20187;-66
2021/09/21 19:28:08;;;;;;;7.23;5.97;;;;;;;13.70;62.83;97938.72;5110374;28;20738;-65
2021/09/21 19:30:33;;;;;;;6.63;5.93;;;;;;;13.60;63.30;97943.66;5111324;28;20190;-66
2021/09/21 19:32:59;;;;;;;10.80;6.60;;;;;;;13.38;63.37;97948.50;5129563;28;20188;-66
2021/09/21 19:35:25;;;;;;;8.27;6.70;;;;;;;13.45;63.21;97935.28;5129774;28;20199;-66
2021/09/21 19:37:54;;;;;;;8.33;6.87;;;;;;;13.38;63.33;97935.34;5129843;27;20187;-67
2021/09/21 19:40:21;;;;;;;6.93;5.63;;;;;;;13.42;63.41;97936.53;5130085;28;20198;-66
2021/09/21 19:42:47;;;;;;;10.77;6.67;;;;;;;13.53;62.33;97937.66;5129177;28;20190;-66
2021/09/21 19:45:20;;;;;;;6.70;6.00;;;;;;;13.53;63.01;97935.81;5129602;28;20652;-66
2021/09/21 19:47:47;;;;;;;6.27;5.53;;;;;;;13.52;63.20;97933.41;5129601;28;20175;-66
2021/09/21 19:50:14;;;;;;;6.47;5.80;;;;;;;13.24;64.17;97929.38;5129549;28;20258;-66
2021/09/21 19:52:40;;;;;;;10.77;7.93;;;;;;;13.14;64.56;97933.53;5129511;28;20197;-66
2021/09/21 19:55:07;;;;;;;12.33;7.13;;;;;;;13.25;64.56;97925.75;5128402;28;20313;-65
2021/09/21 19:57:32;;;;;;;9.73;7.00;;;;;;;13.27;64.50;97930.78;5127762;27;20191;-65
2021/09/21 19:59:59;;;;;;;11.30;7.03;;;;;;;13.25;64.50;97938.09;5128432;28;20262;-65
2021/09/21 20:02:26;;;;;;;7.17;6.47;;;;;;;13.21;64.87;97929.00;5117794;27;20188;-65
2021/09/21 20:04:53;;;;;;;8.83;6.37;;;;;;;13.12;65.36;97925.84;5109769;28;20275;-65
2021/09/21 20:07:18;;;;;;;7.07;5.90;;;;;;;13.10;65.86;97924.38;5098938;28;20531;-65
2021/09/21 20:09:44;;;;;;;10.07;6.63;;;;;;;13.06;66.35;97929.28;5114557;28;20176;-66
2021/09/21 20:12:09;;;;;;;8.73;6.97;;;;;;;13.08;66.38;97929.88;5114552;28;20180;-66
2021/09/21 20:14:35;;;;;;;9.77;7.67;;;;;;;12.98;66.03;97929.56;5114450;28;20566;-65
2021/09/21 20:17:02;;;;;;;9.07;7.03;;;;;;;12.95;66.14;97935.22;5114738;28;20287;-65
2021/09/21 20:19:31;;;;;;;8.83;6.90;;;;;;;12.78;66.81;97939.41;5095850;28;20180;-65
2021/09/21 20:21:57;;;;;;;8.03;6.70;;;;;;;13.07;65.87;97944.06;5114303;28;20184;-64
2021/09/21 20:24:22;;;;;;;9.10;6.93;;;;;;;13.25;65.30;97941.53;5114020;28;20260;-65
2021/09/21 20:26:48;;;;;;;7.73;6.73;;;;;;;13.14;65.82;97942.22;5114511;28;20489;-65
2021/09/21 20:29:16;;;;;;;9.37;6.80;;;;;;;13.31;64.61;97942.50;5114985;28;20662;-65
2021/09/21 20:31:41;;;;;;;10.67;7.10;;;;;;;13.37;64.30;97946.91;5114458;28;20251;-65
2021/09/21 20:34:11;;;;;;;8.17;7.23;;;;;;;13.26;64.66;97940.50;5096354;28;20279;-65
2021/09/21 20:36:36;;;;;;;9.30;7.40;;;;;;;13.22;65.11;97951.66;5114325;28;20845;-65
2021/09/21 20:39:02;;;;;;;8.53;6.70;;;;;;;13.08;65.28;97956.22;5095859;28;20180;-65
2021/09/21 20:41:27;;;;;;;9.83;7.23;;;;;;;13.13;65.17;97948.50;5114313;28;20211;-65
2021/09/21 20:43:53;;;;;;;8.00;6.63;;;;;;;13.13;65.04;97947.69;5113407;28;20566;-65
2021/09/21 20:46:18;;;;;;;7.27;6.57;;;;;;;13.20;64.98;97940.56;5096004;28;20223;-65
2021/09/21 20:48:44;;;;;;;7.53;6.73;;;;;;;12.91;66.18;97947.22;5113838;28;20625;-65
2021/09/21 20:51:12;;;;;;;8.87;7.70;;;;;;;12.97;66.08;97954.25;5113956;28;20187;-65
2021/09/21 20:53:38;;;;;;;8.47;7.23;;;;;;;13.01;65.95;97955.44;5116447;27;20282;-65
2021/09/21 20:56:04;;;;;;;10.13;7.47;;;;;;;13.09;65.93;97944.66;5113345;28;20231;-65
2021/09/21 20:58:30;;;;;;;8.37;7.33;;;;;;;12.96;66.54;97949.19;5113962;28;20186;-65
2021/09/21 21:00:56;;;;;;;9.27;7.93;;;;;;;13.01;66.00;97952.00;5112892;28;20202;-65
2021/09/21 21:03:23;;;;;;;10.30;7.60;;;;;;;13.14;65.83;97951.94;5113767;28;20236;-65
2021/09/21 21:05:49;;;;;;;10.50;7.20;;;;;;;13.01;66.07;97952.81;5113422;28;20621;-65
2021/09/21 21:08:14;;;;;;;9.30;7.50;;;;;;;13.26;65.69;97952.88;5113964;28;20183;-65
2021/09/21 21:10:39;;;;;;;9.87;7.40;;;;;;;12.69;67.45;97959.09;5095471;28;20187;-65
2021/09/21 21:13:05;;;;;;;8.17;7.23;;;;;;;12.63;67.97;97959.94;5113355;28;20233;-64
2021/09/21 21:15:31;;;;;;;8.57;7.37;;;;;;;12.37;69.07;97963.50;5113398;28;20207;-65
2021/09/21 21:17:56;;;;;;;10.67;7.80;;;;;;;12.15;70.11;97962.94;5112512;28;20690;-66
2021/09/21 21:20:21;;;;;;;11.17;7.13;;;;;;;12.25;70.17;97954.63;5114081;28;20195;-64
2021/09/21 21:22:47;;;;;;;8.87;7.43;;;;;;;12.22;70.27;97957.66;5113972;28;20532;-65
2021/09/21 21:25:13;;;;;;;9.53;7.37;;;;;;;12.26;70.18;97943.91;5113612;28;20585;-65
2021/09/21 21:27:39;;;;;;;10.63;7.43;;;;;;;12.13;70.97;97943.16;5114306;28;20184;-65
2021/09/21 21:30:05;;;;;;;9.00;7.40;;;;;;;12.18;71.01;97938.06;5096104;28;20195;-65
2021/09/21 21:32:30;;;;;;;9.43;7.40;;;;;;;12.17;71.06;97939.91;5095591;28;20609;-64
2021/09/21 21:34:56;;;;;;;10.53;7.03;;;;;;;12.19;70.97;97935.25;5113802;28;20208;-65
2021/09/21 21:37:21;;;;;;;9.40;7.97;;;;;;;12.09;71.47;97934.88;5114155;28;20255;-65
2021/09/21 21:39:47;;;;;;;10.87;7.87;;;;;;;12.11;71.50;97924.16;5113750;28;20625;-65
2021/09/21 21:42:12;;;;;;;9.93;7.67;;;;;;;12.13;71.08;97930.81;5113363;28;20187;-65
2021/09/21 21:44:38;;;;;;;8.80;7.37;;;;;;;12.14;71.45;97924.56;5113505;28;20196;-65
2021/09/21 21:47:03;;;;;;;9.70;8.13;;;;;;;12.12;71.27;97926.56;5113545;28;20730;-65
2021/09/21 21:49:31;;;;;;;10.83;7.50;;;;;;;12.12;71.75;97938.91;5113814;28;20187;-65
2021/09/21 21:51:57;;;;;;;11.47;8.67;;;;;;;12.12;71.58;97934.47;5113761;28;20660;-65
2021/09/21 21:54:23;;;;;;;14.97;9.30;;;;;;;12.11;71.51;97940.72;5113526;28;20234;-65
2021/09/21 21:56:48;;;;;;;11.23;8.63;;;;;;;12.09;71.71;97937.50;5095402;28;20183;-65
2021/09/21 21:59:13;;;;;;;11.83;8.80;;;;;;;12.09;72.14;97942.78;5113303;28;20176;-64
2021/09/21 22:01:39;;;;;;;12.17;8.83;;;;;;;12.21;71.68;97945.53;5113641;28;20188;-65
2021/09/21 22:04:04;;;;;;;13.27;9.20;;;;;;;12.28;70.80;97943.69;5113728;28;20259;-65
2021/09/21 22:06:30;;;;;;;10.67;8.53;;;;;;;12.43;70.58;97941.59;5113498;28;20176;-65
2021/09/21 22:08:55;;;;;;;12.97;9.00;;;;;;;12.16;71.67;97948.78;5095031;28;20184;-65
2021/09/21 22:11:21;;;;;;;12.80;9.37;;;;;;;12.12;71.73;97950.22;5113662;28;20274;-65
2021/09/21 22:13:48;;;;;;;15.20;9.57;;;;;;;12.44;70.71;97961.63;5095201;28;20542;-65
2021/09/21 22:16:13;;;;;;;11.87;8.97;;;;;;;12.37;71.04;97961.66;5113032;28;20223;-65
2021/09/21 22:18:39;;;;;;;12.97;9.13;;;;;;;12.46;70.76;97959.59;5113290;28;20184;-65
2021/09/21 22:21:04;;;;;;;13.23;9.27;;;;;;;12.33;71.49;97963.09;5113443;28;20187;-65
2021/09/21 22:23:30;;;;;;;12.07;9.60;;;;;;;12.37;71.37;97966.13;5112638;28;20545;-65
2021/09/21 22:25:55;;;;;;;13.43;9.10;;;;;;;12.32;71.93;97971.16;5113504;28;20192;-65
2021/09/21 22:28:21;;;;;;;11.63;9.50;;;;;;;12.27;72.22;97971.00;5113261;28;20582;-65
2021/09/21 22:30:48;;;;;;;12.57;9.63;;;;;;;12.18;72.48;97967.00;5112505;28;20202;-65
2021/09/21 22:33:14;;;;;;;14.03;9.63;;;;;;;12.20;72.35;97964.97;5113181;28;20222;-65
2021/09/21 22:35:40;;;;;;;13.10;9.10;;;;;;;12.15;72.60;97959.53;5112964;28;20203;-65
2021/09/21 22:38:05;;;;;;;12.63;9.30;;;;;;;11.82;73.80;97964.84;5113102;28;20684;-65
2021/09/21 22:40:32;;;;;;;13.07;9.53;;;;;;;11.73;74.17;97959.00;5113701;28;20199;-65
2021/09/21 22:42:57;;;;;;;14.07;9.63;;;;;;;11.60;74.95;97966.88;5112648;28;20678;-65
2021/09/21 22:45:23;;;;;;;13.07;9.43;;;;;;;11.61;75.46;97971.13;5112891;28;20219;-65
2021/09/21 22:47:48;;;;;;;10.57;9.10;;;;;;;11.56;75.38;97965.66;5113124;28;20198;-65
2021/09/21 22:50:14;;;;;;;13.30;8.87;;;;;;;11.65;75.00;97959.19;5113074;28;20184;-65
2021/09/21 22:52:40;;;;;;;15.07;9.60;;;;;;;11.52;75.77;97953.97;5112900;28;20605;-65
2021/09/21 22:55:08;;;;;;;13.17;9.17;;;;;;;11.52;75.97;97951.34;5112799;28;20227;-65
2021/09/21 22:57:34;;;;;;;13.27;9.17;;;;;;;11.59;75.73;97949.53;5112986;28;20188;-65
2021/09/21 23:00:00;;;;;;;10.40;9.13;;;;;;;11.54;76.08;97944.06;5112413;28;20215;-65
2021/09/21 23:02:29;;;;;;;11.37;8.87;;;;;;;11.47;76.78;97941.47;5112287;28;20715;-65
2021/09/21 23:04:55;;;;;;;11.80;8.73;;;;;;;11.35;77.11;97944.88;5112472;28;20218;-65
2021/09/21 23:07:20;;;;;;;11.70;8.87;;;;;;;11.43;77.13;97949.91;5094170;28;20667;-65
2021/09/21 23:09:46;;;;;;;12.10;9.33;;;;;;;11.50;76.39;97943.66;5112845;28;20180;-65
2021/09/21 23:12:11;;;;;;;12.33;9.37;;;;;;;11.45;77.09;97930.34;5113135;28;20643;-65
2021/09/21 23:14:36;;;;;;;11.77;9.07;;;;;;;11.35;77.71;97932.56;5112815;27;20252;-65
2021/09/21 23:17:02;;;;;;;13.67;9.33;;;;;;;11.35;78.03;97939.63;5113076;28;20540;-65
2021/09/21 23:19:27;;;;;;;12.70;9.37;;;;;;;11.35;78.01;97937.81;5112342;28;20214;-65
2021/09/21 23:21:53;;;;;;;11.90;9.20;;;;;;;11.34;78.01;97938.81;5112155;28;20195;-65
2021/09/21 23:24:19;;;;;;;10.60;9.40;;;;;;;11.30;78.28;97936.81;5111424;28;20198;-65
2021/09/21 23:26:44;;;;;;;10.93;8.53;;;;;;;11.25;78.52;97935.63;5094278;28;20400;-65
2021/09/21 23:29:10;;;;;;;10.87;9.20;;;;;;;11.24;79.11;97928.75;5112717;28;20172;-65
2021/09/21 23:31:35;;;;;;;10.73;9.40;;;;;;;11.26;79.74;97928.53;5113219;28;20651;-65
2021/09/21 23:34:03;;;;;;;13.57;9.77;;;;;;;11.22;80.22;97927.31;5112386;28;20172;-65
2021/09/21 23:36:29;;;;;;;12.30;9.23;;;;;;;11.17;81.29;97941.06;5112570;28;20211;-65
2021/09/21 23:38:54;;;;;;;13.53;10.33;;;;;;;11.15;82.57;97935.19;5112328;28;20648;-65
2021/09/21 23:41:19;;;;;;;14.00;10.87;;;;;;;11.00;84.10;97936.38;5112868;28;20260;-65
2021/09/21 23:43:45;;;;;;;13.07;9.90;;;;;;;11.05;83.56;97933.97;5115210;28;20191;-65
2021/09/21 23:46:10;;;;;;;15.27;10.50;;;;;;;11.16;83.15;97938.63;5116163;28;20180;-65
2021/09/21 23:48:36;;;;;;;12.77;10.10;;;;;;;11.27;83.19;97930.16;5115842;28;20544;-65
2021/09/21 23:51:01;;;;;;;13.87;10.13;;;;;;;11.35;82.56;97923.88;5116144;28;20180;-65
2021/09/21 23:53:26;;;;;;;13.73;9.77;;;;;;;11.22;82.98;97916.81;5115640;28;20263;-65
2021/09/21 23:55:52;;;;;;;13.43;9.70;;;;;;;11.08;83.61;97912.59;5115872;28;20364;-65
2021/09/21 23:58:17;;;;;;;14.23;11.27;;;;;;;11.07;84.23;97909.16;5115605;28;20640;-65
